sensor_id;sensor_type;location;lat;lon;timestamp;pressure;altitude;pressure_sealevel;temperature;humidity
13974;BME280;7060;43.770;4.008;2022-07-23T00:00:44;101066.75;;;27.08;65.96
13974;BME280;7060;43.770;4.008;2022-07-23T00:03:14;101063.09;;;27.03;66.32
13974;BME280;7060;43.770;4.008;2022-07-23T00:05:43;101045.28;;;26.88;66.30
13974;BME280;7060;43.770;4.008;2022-07-23T00:08:13;101063.41;;;26.89;66.20
13974;BME280;7060;43.770;4.008;2022-07-23T00:10:42;101052.91;;;26.86;66.53
13974;BME280;7060;43.770;4.008;2022-07-23T00:13:11;101062.28;;;26.90;66.30
13974;BME280;7060;43.770;4.008;2022-07-23T00:15:40;101066.69;;;26.91;66.06
13974;BME280;7060;43.770;4.008;2022-07-23T00:18:10;101070.81;;;26.89;66.44
13974;BME280;7060;43.770;4.008;2022-07-23T00:20:38;101060.31;;;26.86;66.25
13974;BME280;7060;43.770;4.008;2022-07-23T00:23:07;101059.47;;;26.85;66.13
13974;BME280;7060;43.770;4.008;2022-07-23T00:25:38;101051.97;;;26.81;66.24
13974;BME280;7060;43.770;4.008;2022-07-23T00:28:06;101059.53;;;26.74;66.92
13974;BME280;7060;43.770;4.008;2022-07-23T00:30:35;101060.25;;;26.69;66.79
13974;BME280;7060;43.770;4.008;2022-07-23T00:33:06;101059.75;;;26.72;66.96
13974;BME280;7060;43.770;4.008;2022-07-23T00:35:37;101058.09;;;26.71;66.99
13974;BME280;7060;43.770;4.008;2022-07-23T00:38:08;101063.00;;;26.69;67.10
13974;BME280;7060;43.770;4.008;2022-07-23T00:40:39;101055.84;;;26.68;66.82
13974;BME280;7060;43.770;4.008;2022-07-23T00:43:08;101054.53;;;26.71;66.74
13974;BME280;7060;43.770;4.008;2022-07-23T00:45:37;101057.03;;;26.72;66.87
13974;BME280;7060;43.770;4.008;2022-07-23T00:48:06;101049.53;;;26.68;66.92
13974;BME280;7060;43.770;4.008;2022-07-23T00:50:35;101054.66;;;26.64;66.64
13974;BME280;7060;43.770;4.008;2022-07-23T00:53:05;101023.09;;;26.50;66.80
13974;BME280;7060;43.770;4.008;2022-07-23T00:55:35;101060.25;;;26.69;66.83
13974;BME280;7060;43.770;4.008;2022-07-23T00:58:06;101057.50;;;26.69;66.73
13974;BME280;7060;43.770;4.008;2022-07-23T01:00:35;101068.81;;;26.73;66.32
13974;BME280;7060;43.770;4.008;2022-07-23T01:03:04;101064.66;;;26.70;66.47
13974;BME280;7060;43.770;4.008;2022-07-23T01:05:33;101062.41;;;26.67;66.37
13974;BME280;7060;43.770;4.008;2022-07-23T01:08:02;101063.97;;;26.63;66.85
13974;BME280;7060;43.770;4.008;2022-07-23T01:10:31;101072.47;;;26.61;66.61
13974;BME280;7060;43.770;4.008;2022-07-23T01:13:02;101069.13;;;26.59;67.02
13974;BME280;7060;43.770;4.008;2022-07-23T01:15:35;101066.00;;;26.56;66.39
13974;BME280;7060;43.770;4.008;2022-07-23T01:18:05;101071.13;;;26.52;66.97
13974;BME280;7060;43.770;4.008;2022-07-23T01:20:36;101072.69;;;26.48;67.02
13974;BME280;7060;43.770;4.008;2022-07-23T01:23:08;101075.56;;;26.42;66.75
13974;BME280;7060;43.770;4.008;2022-07-23T01:25:47;101071.63;;;26.38;66.71
13974;BME280;7060;43.770;4.008;2022-07-23T01:28:18;101077.63;;;26.35;67.47
13974;BME280;7060;43.770;4.008;2022-07-23T01:30:48;101077.03;;;26.33;67.55
13974;BME280;7060;43.770;4.008;2022-07-23T01:33:17;101070.38;;;26.28;67.35
13974;BME280;7060;43.770;4.008;2022-07-23T01:35:46;101082.88;;;26.24;67.72
13974;BME280;7060;43.770;4.008;2022-07-23T01:38:22;101080.63;;;26.21;67.90
13974;BME280;7060;43.770;4.008;2022-07-23T01:40:51;101077.03;;;26.21;67.60
13974;BME280;7060;43.770;4.008;2022-07-23T01:43:26;101088.00;;;26.21;68.14
13974;BME280;7060;43.770;4.008;2022-07-23T01:45:55;101086.81;;;26.28;67.62
13974;BME280;7060;43.770;4.008;2022-07-23T01:48:28;101086.34;;;26.32;67.45
13974;BME280;7060;43.770;4.008;2022-07-23T01:51:17;101079.78;;;26.33;67.40
13974;BME280;7060;43.770;4.008;2022-07-23T01:53:57;101066.56;;;26.29;67.30
13974;BME280;7060;43.770;4.008;2022-07-23T01:56:26;101071.91;;;26.24;66.88
13974;BME280;7060;43.770;4.008;2022-07-23T01:58:55;101073.22;;;26.22;67.51
13974;BME280;7060;43.770;4.008;2022-07-23T02:01:24;101078.72;;;26.22;67.83
13974;BME280;7060;43.770;4.008;2022-07-23T02:03:53;101073.22;;;26.22;67.50
13974;BME280;7060;43.770;4.008;2022-07-23T02:06:22;101081.94;;;26.19;67.87
13974;BME280;7060;43.770;4.008;2022-07-23T02:08:53;101079.06;;;26.14;68.02
13974;BME280;7060;43.770;4.008;2022-07-23T02:11:23;101072.63;;;26.08;67.92
13974;BME280;7060;43.770;4.008;2022-07-23T02:13:53;101068.97;;;26.03;68.55
13974;BME280;7060;43.770;4.008;2022-07-23T02:16:22;101066.47;;;26.01;68.35
13974;BME280;7060;43.770;4.008;2022-07-23T02:18:52;101067.56;;;26.00;68.12
13974;BME280;7060;43.770;4.008;2022-07-23T02:21:20;101064.81;;;26.00;68.70
13974;BME280;7060;43.770;4.008;2022-07-23T02:23:49;101068.16;;;26.02;68.06
13974;BME280;7060;43.770;4.008;2022-07-23T02:26:19;101076.38;;;26.02;68.30
13974;BME280;7060;43.770;4.008;2022-07-23T02:28:53;101080.28;;;26.06;68.06
13974;BME280;7060;43.770;4.008;2022-07-23T02:31:22;101079.34;;;26.01;68.10
13974;BME280;7060;43.770;4.008;2022-07-23T02:33:51;101082.16;;;25.94;68.45
13974;BME280;7060;43.770;4.008;2022-07-23T02:36:19;101080.13;;;25.89;68.55
13974;BME280;7060;43.770;4.008;2022-07-23T02:38:49;101085.25;;;25.86;68.37
13974;BME280;7060;43.770;4.008;2022-07-23T02:41:18;101084.41;;;25.85;68.17
13974;BME280;7060;43.770;4.008;2022-07-23T02:43:47;101078.72;;;25.75;68.22
13974;BME280;7060;43.770;4.008;2022-07-23T02:46:17;101080.25;;;25.71;68.23
13974;BME280;7060;43.770;4.008;2022-07-23T02:48:46;101078.84;;;25.69;68.42
13974;BME280;7060;43.770;4.008;2022-07-23T02:59:49;101076.81;;;25.52;68.69
13974;BME280;7060;43.770;4.008;2022-07-23T03:02:19;101072.63;;;25.61;68.43
13974;BME280;7060;43.770;4.008;2022-07-23T03:04:48;101076.22;;;25.74;68.25
13974;BME280;7060;43.770;4.008;2022-07-23T03:07:18;101078.50;;;25.77;67.98
13974;BME280;7060;43.770;4.008;2022-07-23T03:09:48;101071.94;;;25.78;67.73
13974;BME280;7060;43.770;4.008;2022-07-23T03:12:17;101081.47;;;25.75;67.50
13974;BME280;7060;43.770;4.008;2022-07-23T03:14:45;101082.16;;;25.71;67.64
13974;BME280;7060;43.770;4.008;2022-07-23T03:17:14;101074.19;;;25.69;67.77
13974;BME280;7060;43.770;4.008;2022-07-23T03:19:45;101078.59;;;25.70;67.47
13974;BME280;7060;43.770;4.008;2022-07-23T03:22:13;101091.91;;;25.67;67.09
13974;BME280;7060;43.770;4.008;2022-07-23T03:24:42;101089.88;;;25.62;67.53
13974;BME280;7060;43.770;4.008;2022-07-23T03:27:30;101084.03;;;25.58;67.25
13974;BME280;7060;43.770;4.008;2022-07-23T03:29:59;101078.56;;;25.58;67.09
13974;BME280;7060;43.770;4.008;2022-07-23T03:32:28;101085.03;;;25.52;67.56
13974;BME280;7060;43.770;4.008;2022-07-23T03:35:00;101094.16;;;25.46;67.52
13974;BME280;7060;43.770;4.008;2022-07-23T03:37:29;101093.09;;;25.47;67.47
13974;BME280;7060;43.770;4.008;2022-07-23T03:39:59;101095.22;;;25.45;67.02
13974;BME280;7060;43.770;4.008;2022-07-23T03:42:29;101079.66;;;25.46;66.84
13974;BME280;7060;43.770;4.008;2022-07-23T03:44:58;101081.53;;;25.45;66.30
13974;BME280;7060;43.770;4.008;2022-07-23T03:47:27;101076.53;;;25.42;65.56
13974;BME280;7060;43.770;4.008;2022-07-23T03:49:55;101084.00;;;25.35;65.89
13974;BME280;7060;43.770;4.008;2022-07-23T03:52:26;101084.06;;;25.28;66.14
13974;BME280;7060;43.770;4.008;2022-07-23T03:54:54;101088.13;;;25.26;66.50
13974;BME280;7060;43.770;4.008;2022-07-23T03:57:24;101098.00;;;25.27;66.29
13974;BME280;7060;43.770;4.008;2022-07-23T03:59:53;101101.78;;;25.26;66.20
13974;BME280;7060;43.770;4.008;2022-07-23T04:02:22;101070.19;;;25.00;66.33
13974;BME280;7060;43.770;4.008;2022-07-23T04:04:51;101091.69;;;25.15;66.50
13974;BME280;7060;43.770;4.008;2022-07-23T04:07:20;101095.44;;;25.02;66.82
13974;BME280;7060;43.770;4.008;2022-07-23T04:09:50;101105.41;;;24.96;67.02
13974;BME280;7060;43.770;4.008;2022-07-23T04:12:19;101098.63;;;24.99;67.26
13974;BME280;7060;43.770;4.008;2022-07-23T04:14:48;101090.09;;;25.07;66.91
13974;BME280;7060;43.770;4.008;2022-07-23T04:17:17;101089.50;;;25.05;66.93
13974;BME280;7060;43.770;4.008;2022-07-23T04:19:46;101092.69;;;25.02;67.04
13974;BME280;7060;43.770;4.008;2022-07-23T04:22:20;101085.44;;;24.96;67.20
13974;BME280;7060;43.770;4.008;2022-07-23T04:24:51;101088.03;;;24.91;67.22
13974;BME280;7060;43.770;4.008;2022-07-23T04:27:19;101077.16;;;24.84;67.49
13974;BME280;7060;43.770;4.008;2022-07-23T04:29:48;101072.53;;;24.85;67.07
13974;BME280;7060;43.770;4.008;2022-07-23T04:32:18;101080.28;;;24.88;66.72
13974;BME280;7060;43.770;4.008;2022-07-23T04:34:47;101077.09;;;24.91;66.66
13974;BME280;7060;43.770;4.008;2022-07-23T04:37:16;101074.97;;;24.93;66.34
13974;BME280;7060;43.770;4.008;2022-07-23T04:39:45;101089.00;;;24.96;66.38
13974;BME280;7060;43.770;4.008;2022-07-23T04:42:15;101093.03;;;24.94;65.82
13974;BME280;7060;43.770;4.008;2022-07-23T04:44:44;101083.63;;;24.90;65.78
13974;BME280;7060;43.770;4.008;2022-07-23T04:47:14;101092.06;;;24.88;66.00
13974;BME280;7060;43.770;4.008;2022-07-23T04:49:44;101100.88;;;24.90;65.36
13974;BME280;7060;43.770;4.008;2022-07-23T04:52:15;101107.78;;;24.93;64.92
13974;BME280;7060;43.770;4.008;2022-07-23T04:54:43;101106.94;;;24.92;64.66
13974;BME280;7060;43.770;4.008;2022-07-23T04:57:12;101101.47;;;24.92;64.60
13974;BME280;7060;43.770;4.008;2022-07-23T04:59:43;101091.81;;;24.90;64.51
13974;BME280;7060;43.770;4.008;2022-07-23T05:02:12;101117.69;;;25.06;64.46
13974;BME280;7060;43.770;4.008;2022-07-23T05:04:41;101116.84;;;25.05;64.39
13974;BME280;7060;43.770;4.008;2022-07-23T05:07:11;101113.19;;;25.11;64.03
13974;BME280;7060;43.770;4.008;2022-07-23T05:09:40;101117.13;;;25.15;64.03
13974;BME280;7060;43.770;4.008;2022-07-23T05:12:10;101132.84;;;25.20;63.80
13974;BME280;7060;43.770;4.008;2022-07-23T05:14:43;101134.63;;;25.26;63.52
13974;BME280;7060;43.770;4.008;2022-07-23T05:17:11;101130.41;;;25.30;63.24
13974;BME280;7060;43.770;4.008;2022-07-23T05:19:41;101131.59;;;25.34;63.35
13974;BME280;7060;43.770;4.008;2022-07-23T05:22:10;101127.81;;;25.35;63.66
13974;BME280;7060;43.770;4.008;2022-07-23T05:24:39;101141.72;;;25.34;63.50
13974;BME280;7060;43.770;4.008;2022-07-23T05:27:08;101145.06;;;25.36;63.40
13974;BME280;7060;43.770;4.008;2022-07-23T05:29:39;101136.84;;;25.36;63.81
13974;BME280;7060;43.770;4.008;2022-07-23T05:32:10;101151.50;;;25.41;63.17
13974;BME280;7060;43.770;4.008;2022-07-23T05:34:44;101139.63;;;25.47;63.12
13974;BME280;7060;43.770;4.008;2022-07-23T05:37:13;101145.59;;;25.56;62.75
13974;BME280;7060;43.770;4.008;2022-07-23T05:39:42;101144.66;;;25.62;62.52
13974;BME280;7060;43.770;4.008;2022-07-23T05:42:12;101135.72;;;25.67;62.70
13974;BME280;7060;43.770;4.008;2022-07-23T05:44:41;101145.75;;;25.73;62.16
13974;BME280;7060;43.770;4.008;2022-07-23T05:47:12;101115.22;;;25.57;61.97
13974;BME280;7060;43.770;4.008;2022-07-23T05:49:41;101152.53;;;25.82;61.45
13974;BME280;7060;43.770;4.008;2022-07-23T05:52:26;101151.97;;;25.80;61.64
13974;BME280;7060;43.770;4.008;2022-07-23T05:55:13;101147.31;;;25.80;61.67
13974;BME280;7060;43.770;4.008;2022-07-23T05:57:42;101124.19;;;25.64;61.78
13974;BME280;7060;43.770;4.008;2022-07-23T06:00:11;101121.31;;;25.59;61.74
13974;BME280;7060;43.770;4.008;2022-07-23T06:02:43;101156.94;;;25.83;61.42
13974;BME280;7060;43.770;4.008;2022-07-23T06:05:16;101166.72;;;25.79;61.55
13974;BME280;7060;43.770;4.008;2022-07-23T06:07:46;101165.38;;;25.81;61.98
13974;BME280;7060;43.770;4.008;2022-07-23T06:10:15;101163.63;;;25.87;61.84
13974;BME280;7060;43.770;4.008;2022-07-23T06:12:44;101160.94;;;25.99;61.13
13974;BME280;7060;43.770;4.008;2022-07-23T06:15:13;101157.34;;;26.21;59.96
13974;BME280;7060;43.770;4.008;2022-07-23T06:17:43;101162.22;;;26.43;58.42
13974;BME280;7060;43.770;4.008;2022-07-23T06:20:12;101161.97;;;26.68;57.41
13974;BME280;7060;43.770;4.008;2022-07-23T06:22:42;101158.25;;;26.85;56.20
13974;BME280;7060;43.770;4.008;2022-07-23T06:25:11;101158.19;;;26.97;55.34
13974;BME280;7060;43.770;4.008;2022-07-23T06:27:46;101169.72;;;27.11;55.06
13974;BME280;7060;43.770;4.008;2022-07-23T06:30:15;101155.78;;;27.41;53.98
13974;BME280;7060;43.770;4.008;2022-07-23T06:32:49;101164.25;;;27.73;53.43
13974;BME280;7060;43.770;4.008;2022-07-23T06:35:18;101160.50;;;27.90;52.15
13974;BME280;7060;43.770;4.008;2022-07-23T06:37:46;101147.50;;;27.86;51.68
13974;BME280;7060;43.770;4.008;2022-07-23T06:40:16;101164.16;;;27.96;51.24
13974;BME280;7060;43.770;4.008;2022-07-23T06:42:44;101178.97;;;27.95;50.87
13974;BME280;7060;43.770;4.008;2022-07-23T06:45:22;101175.16;;;27.96;49.32
13974;BME280;7060;43.770;4.008;2022-07-23T06:47:53;101172.72;;;28.00;48.98
13974;BME280;7060;43.770;4.008;2022-07-23T06:50:22;101166.53;;;28.09;48.98
13974;BME280;7060;43.770;4.008;2022-07-23T06:52:51;101171.53;;;28.12;48.50
13974;BME280;7060;43.770;4.008;2022-07-23T06:55:20;101165.47;;;28.10;48.34
13974;BME280;7060;43.770;4.008;2022-07-23T06:57:49;101163.22;;;28.07;48.35
13974;BME280;7060;43.770;4.008;2022-07-23T07:00:18;101166.47;;;28.04;48.00
13974;BME280;7060;43.770;4.008;2022-07-23T07:02:47;101165.38;;;28.05;48.10
13974;BME280;7060;43.770;4.008;2022-07-23T07:05:17;101161.81;;;28.05;47.70
13974;BME280;7060;43.770;4.008;2022-07-23T07:07:46;101164.88;;;28.08;47.28
13974;BME280;7060;43.770;4.008;2022-07-23T07:10:15;101160.22;;;28.25;47.14
13974;BME280;7060;43.770;4.008;2022-07-23T07:12:45;101157.63;;;28.57;46.68
13974;BME280;7060;43.770;4.008;2022-07-23T07:15:13;101152.66;;;28.98;44.77
13974;BME280;7060;43.770;4.008;2022-07-23T07:17:43;101153.09;;;29.39;44.11
13974;BME280;7060;43.770;4.008;2022-07-23T07:20:11;64552.53;;;-144.59;100.00
13974;BME280;7060;43.770;4.008;2022-07-23T07:22:42;64552.53;;;-144.59;100.00
13974;BME280;7060;43.770;4.008;2022-07-23T07:25:11;64552.53;;;-144.59;100.00
13974;BME280;7060;43.770;4.008;2022-07-23T07:27:39;101153.09;;;29.39;44.11
13974;BME280;7060;43.770;4.008;2022-07-23T07:30:10;101164.16;;;30.92;40.32
13974;BME280;7060;43.770;4.008;2022-07-23T07:32:39;101161.22;;;31.34;39.58
13974;BME280;7060;43.770;4.008;2022-07-23T07:35:25;101159.38;;;31.75;37.91
13974;BME280;7060;43.770;4.008;2022-07-23T07:37:55;101159.63;;;31.94;37.48
13974;BME280;7060;43.770;4.008;2022-07-23T07:40:24;101165.69;;;32.11;37.59
13974;BME280;7060;43.770;4.008;2022-07-23T07:43:00;101164.81;;;32.46;36.48
13974;BME280;7060;43.770;4.008;2022-07-23T07:45:29;101169.69;;;32.85;36.09
13974;BME280;7060;43.770;4.008;2022-07-23T07:47:58;101160.84;;;33.27;34.75
13974;BME280;7060;43.770;4.008;2022-07-23T07:50:27;101159.22;;;33.65;34.26
13974;BME280;7060;43.770;4.008;2022-07-23T07:52:58;101157.03;;;33.96;33.20
13974;BME280;7060;43.770;4.008;2022-07-23T07:55:27;101152.41;;;34.15;33.10
13974;BME280;7060;43.770;4.008;2022-07-23T07:57:58;101154.59;;;34.18;33.07
13974;BME280;7060;43.770;4.008;2022-07-23T08:00:28;101146.41;;;34.03;32.56
13974;BME280;7060;43.770;4.008;2022-07-23T08:02:59;101153.44;;;33.95;32.97
13974;BME280;7060;43.770;4.008;2022-07-23T08:05:30;101144.38;;;33.85;32.73
13974;BME280;7060;43.770;4.008;2022-07-23T08:08:00;101150.03;;;33.70;33.26
13974;BME280;7060;43.770;4.008;2022-07-23T08:10:29;101150.91;;;33.65;33.67
13974;BME280;7060;43.770;4.008;2022-07-23T08:12:58;101150.63;;;33.67;33.60
13974;BME280;7060;43.770;4.008;2022-07-23T08:15:29;101158.28;;;33.80;33.23
13974;BME280;7060;43.770;4.008;2022-07-23T08:17:59;101148.25;;;33.84;33.32
13974;BME280;7060;43.770;4.008;2022-07-23T08:20:29;101150.94;;;33.94;32.98
13974;BME280;7060;43.770;4.008;2022-07-23T08:23:03;101127.69;;;33.90;33.01
13974;BME280;7060;43.770;4.008;2022-07-23T08:25:34;101152.97;;;34.12;32.88
13974;BME280;7060;43.770;4.008;2022-07-23T08:28:05;101138.63;;;34.05;32.61
13974;BME280;7060;43.770;4.008;2022-07-23T08:30:36;101151.50;;;33.96;32.55
13974;BME280;7060;43.770;4.008;2022-07-23T08:33:08;101149.66;;;33.81;32.43
13974;BME280;7060;43.770;4.008;2022-07-23T08:35:59;101158.66;;;33.68;32.51
13974;BME280;7060;43.770;4.008;2022-07-23T08:38:32;101153.38;;;33.67;33.05
13974;BME280;7060;43.770;4.008;2022-07-23T08:41:03;101150.63;;;33.67;32.49
13974;BME280;7060;43.770;4.008;2022-07-23T08:43:33;101155.66;;;33.59;32.66
13974;BME280;7060;43.770;4.008;2022-07-23T08:46:03;101153.19;;;33.53;32.74
13974;BME280;7060;43.770;4.008;2022-07-23T08:48:34;101152.38;;;33.52;33.00
13974;BME280;7060;43.770;4.008;2022-07-23T08:51:06;101144.03;;;33.57;33.05
13974;BME280;7060;43.770;4.008;2022-07-23T08:53:39;101148.38;;;33.69;32.43
13974;BME280;7060;43.770;4.008;2022-07-23T08:56:09;101148.03;;;33.75;32.66
13974;BME280;7060;43.770;4.008;2022-07-23T08:58:38;101157.72;;;33.78;32.58
13974;BME280;7060;43.770;4.008;2022-07-23T09:01:06;101152.16;;;33.78;32.34
13974;BME280;7060;43.770;4.008;2022-07-23T09:03:36;101149.91;;;33.85;32.76
13974;BME280;7060;43.770;4.008;2022-07-23T09:06:12;101154.31;;;33.91;32.45
13974;BME280;7060;43.770;4.008;2022-07-23T09:08:43;101126.06;;;33.84;32.46
13974;BME280;7060;43.770;4.008;2022-07-23T09:11:16;101157.00;;;34.01;32.76
13974;BME280;7060;43.770;4.008;2022-07-23T09:13:47;101149.41;;;34.07;32.49
13974;BME280;7060;43.770;4.008;2022-07-23T09:16:18;101151.06;;;34.08;32.21
13974;BME280;7060;43.770;4.008;2022-07-23T09:18:49;101153.56;;;34.09;32.06
13974;BME280;7060;43.770;4.008;2022-07-23T09:21:21;101143.63;;;34.03;31.86
13974;BME280;7060;43.770;4.008;2022-07-23T09:23:54;101106.91;;;33.87;31.57
13974;BME280;7060;43.770;4.008;2022-07-23T09:26:33;101135.78;;;34.10;32.04
13974;BME280;7060;43.770;4.008;2022-07-23T09:29:08;101136.56;;;34.16;31.26
13974;BME280;7060;43.770;4.008;2022-07-23T09:31:44;101139.63;;;34.14;31.53
13974;BME280;7060;43.770;4.008;2022-07-23T09:34:16;101133.56;;;34.12;31.88
13974;BME280;7060;43.770;4.008;2022-07-23T09:36:45;101128.25;;;34.16;31.53
13974;BME280;7060;43.770;4.008;2022-07-23T09:39:24;101136.88;;;34.14;31.38
13974;BME280;7060;43.770;4.008;2022-07-23T09:41:53;101139.63;;;34.14;31.40
13974;BME280;7060;43.770;4.008;2022-07-23T09:44:22;101130.00;;;34.07;31.80
13974;BME280;7060;43.770;4.008;2022-07-23T09:46:59;101102.31;;;34.02;31.76
13974;BME280;7060;43.770;4.008;2022-07-23T09:49:29;101115.59;;;34.34;31.57
13974;BME280;7060;43.770;4.008;2022-07-23T09:51:59;101125.41;;;34.50;31.71
13974;BME280;7060;43.770;4.008;2022-07-23T09:54:33;101123.00;;;34.62;31.05
13974;BME280;7060;43.770;4.008;2022-07-23T09:57:05;101122.84;;;34.53;31.07
13974;BME280;7060;43.770;4.008;2022-07-23T09:59:38;101117.50;;;34.57;30.78
13974;BME280;7060;43.770;4.008;2022-07-23T10:02:09;101090.06;;;34.55;30.98
13974;BME280;7060;43.770;4.008;2022-07-23T10:04:56;101117.81;;;34.79;30.66
13974;BME280;7060;43.770;4.008;2022-07-23T10:07:44;101104.75;;;34.80;30.67
13974;BME280;7060;43.770;4.008;2022-07-23T10:10:39;101107.00;;;34.97;30.58
13974;BME280;7060;43.770;4.008;2022-07-23T10:13:28;101120.16;;;35.10;30.34
13974;BME280;7060;43.770;4.008;2022-07-23T10:16:14;101118.53;;;35.27;29.92
13974;BME280;7060;43.770;4.008;2022-07-23T10:18:54;101107.44;;;35.41;29.56
13974;BME280;7060;43.770;4.008;2022-07-23T10:21:30;101119.47;;;35.55;30.36
13974;BME280;7060;43.770;4.008;2022-07-23T10:24:12;101115.00;;;35.73;29.37
13974;BME280;7060;43.770;4.008;2022-07-23T10:26:50;101101.78;;;35.65;29.70
13974;BME280;7060;43.770;4.008;2022-07-23T10:29:34;101108.81;;;35.76;29.90
13974;BME280;7060;43.770;4.008;2022-07-23T10:32:12;101107.53;;;35.87;29.47
13974;BME280;7060;43.770;4.008;2022-07-23T10:34:52;101104.84;;;35.96;29.28
13974;BME280;7060;43.770;4.008;2022-07-23T10:37:25;101109.78;;;35.99;29.08
13974;BME280;7060;43.770;4.008;2022-07-23T10:40:12;101094.66;;;36.05;28.97
13974;BME280;7060;43.770;4.008;2022-07-23T10:42:44;101100.34;;;36.14;29.13
13974;BME280;7060;43.770;4.008;2022-07-23T10:45:28;101096.75;;;36.27;28.69
13974;BME280;7060;43.770;4.008;2022-07-23T10:48:12;101096.00;;;36.21;28.69
13974;BME280;7060;43.770;4.008;2022-07-23T10:50:43;101093.00;;;36.04;28.67
13974;BME280;7060;43.770;4.008;2022-07-23T10:53:14;101091.97;;;36.00;29.00
13974;BME280;7060;43.770;4.008;2022-07-23T10:55:49;101092.19;;;35.90;28.87
13974;BME280;7060;43.770;4.008;2022-07-23T10:58:22;101083.41;;;35.97;29.22
13974;BME280;7060;43.770;4.008;2022-07-23T11:00:52;101080.81;;;36.00;28.68
13974;BME280;7060;43.770;4.008;2022-07-23T11:03:32;101082.06;;;36.08;28.40
13974;BME280;7060;43.770;4.008;2022-07-23T11:06:04;101079.66;;;36.20;28.79
13974;BME280;7060;43.770;4.008;2022-07-23T11:08:34;101085.31;;;36.42;29.26
13974;BME280;7060;43.770;4.008;2022-07-23T11:11:10;101079.59;;;36.61;29.03
13974;BME280;7060;43.770;4.008;2022-07-23T11:13:44;101055.25;;;36.53;28.25
13974;BME280;7060;43.770;4.008;2022-07-23T11:16:17;101064.47;;;36.67;28.20
13974;BME280;7060;43.770;4.008;2022-07-23T11:18:58;101062.06;;;36.74;28.57
13974;BME280;7060;43.770;4.008;2022-07-23T11:21:50;101063.38;;;36.77;27.73
13974;BME280;7060;43.770;4.008;2022-07-23T11:24:20;101058.72;;;36.86;28.42
13974;BME280;7060;43.770;4.008;2022-07-23T11:26:59;101064.63;;;37.07;27.78
13974;BME280;7060;43.770;4.008;2022-07-23T11:29:48;101060.31;;;37.14;27.36
13974;BME280;7060;43.770;4.008;2022-07-23T11:32:33;101033.72;;;36.94;27.47
13974;BME280;7060;43.770;4.008;2022-07-23T11:35:24;101055.53;;;37.15;27.59
13974;BME280;7060;43.770;4.008;2022-07-23T11:38:03;101042.31;;;37.20;27.45
13974;BME280;7060;43.770;4.008;2022-07-23T11:40:33;101044.81;;;37.31;27.49
13974;BME280;7060;43.770;4.008;2022-07-23T11:43:03;101048.63;;;37.35;27.18
13974;BME280;7060;43.770;4.008;2022-07-23T11:45:36;101043.44;;;37.42;27.50
13974;BME280;7060;43.770;4.008;2022-07-23T11:48:07;101034.94;;;37.47;27.58
13974;BME280;7060;43.770;4.008;2022-07-23T11:50:36;101045.66;;;37.53;27.24
13974;BME280;7060;43.770;4.008;2022-07-23T11:53:05;101039.81;;;37.64;27.10
13974;BME280;7060;43.770;4.008;2022-07-23T11:55:34;101042.47;;;37.69;27.30
13974;BME280;7060;43.770;4.008;2022-07-23T11:58:05;101034.31;;;37.81;27.05
13974;BME280;7060;43.770;4.008;2022-07-23T12:00:41;101032.88;;;37.92;26.64
13974;BME280;7060;43.770;4.008;2022-07-23T12:03:10;101041.09;;;37.97;26.89
13974;BME280;7060;43.770;4.008;2022-07-23T12:05:39;100993.88;;;37.70;26.23
13974;BME280;7060;43.770;4.008;2022-07-23T12:08:09;101024.81;;;37.82;26.75
13974;BME280;7060;43.770;4.008;2022-07-23T12:10:40;101025.94;;;37.81;26.82
13974;BME280;7060;43.770;4.008;2022-07-23T12:13:12;101028.75;;;37.81;26.52
13974;BME280;7060;43.770;4.008;2022-07-23T12:15:43;100963.50;;;37.37;26.25
13974;BME280;7060;43.770;4.008;2022-07-23T12:18:14;101022.16;;;37.85;26.70
13974;BME280;7060;43.770;4.008;2022-07-23T12:20:45;101026.47;;;37.83;26.27
13974;BME280;7060;43.770;4.008;2022-07-23T12:23:17;101026.72;;;37.73;26.42
13974;BME280;7060;43.770;4.008;2022-07-23T12:25:49;100972.69;;;37.38;26.28
13974;BME280;7060;43.770;4.008;2022-07-23T12:28:20;101024.03;;;37.59;27.17
13974;BME280;7060;43.770;4.008;2022-07-23T12:30:52;101016.84;;;37.67;26.43
13974;BME280;7060;43.770;4.008;2022-07-23T12:33:25;101014.19;;;37.62;26.43
13974;BME280;7060;43.770;4.008;2022-07-23T12:35:56;100996.03;;;37.42;26.34
13974;BME280;7060;43.770;4.008;2022-07-23T12:38:27;101014.66;;;37.33;27.17
13974;BME280;7060;43.770;4.008;2022-07-23T12:40:57;101009.47;;;37.40;26.98
13974;BME280;7060;43.770;4.008;2022-07-23T12:43:28;101012.66;;;37.24;26.65
13974;BME280;7060;43.770;4.008;2022-07-23T12:46:04;100951.78;;;36.96;27.04
13974;BME280;7060;43.770;4.008;2022-07-23T12:48:35;101002.56;;;37.37;26.88
13974;BME280;7060;43.770;4.008;2022-07-23T12:51:05;101006.00;;;37.56;26.48
13974;BME280;7060;43.770;4.008;2022-07-23T12:53:38;100997.19;;;37.72;26.13
13974;BME280;7060;43.770;4.008;2022-07-23T12:56:09;100981.09;;;37.69;26.33
13974;BME280;7060;43.770;4.008;2022-07-23T12:58:44;101001.66;;;37.81;25.95
13974;BME280;7060;43.770;4.008;2022-07-23T13:01:36;100992.97;;;37.83;25.91
13974;BME280;7060;43.770;4.008;2022-07-23T13:04:07;100996.22;;;37.85;25.70
13974;BME280;7060;43.770;4.008;2022-07-23T13:06:41;100992.78;;;37.88;25.76
13974;BME280;7060;43.770;4.008;2022-07-23T13:09:12;100992.78;;;37.88;25.69
13974;BME280;7060;43.770;4.008;2022-07-23T13:11:42;100991.50;;;37.94;25.99
13974;BME280;7060;43.770;4.008;2022-07-23T13:14:14;100996.94;;;37.99;25.93
13974;BME280;7060;43.770;4.008;2022-07-23T13:16:49;100990.09;;;38.05;25.98
13974;BME280;7060;43.770;4.008;2022-07-23T13:19:19;100992.09;;;38.05;25.81
13974;BME280;7060;43.770;4.008;2022-07-23T13:21:51;100991.25;;;38.04;25.54
13974;BME280;7060;43.770;4.008;2022-07-23T13:24:20;100985.19;;;38.02;25.80
13974;BME280;7060;43.770;4.008;2022-07-23T13:26:50;100981.66;;;37.97;25.83
13974;BME280;7060;43.770;4.008;2022-07-23T13:29:19;100982.81;;;37.96;25.88
13974;BME280;7060;43.770;4.008;2022-07-23T13:31:49;100980.19;;;37.99;26.05